Time;durP1;ratioP1;P1;durP2;ratioP2;P2;SDS_P1;SDS_P2;PMS_P1;PMS_P2;Temp;Humidity;BMP_temperature;BMP_pressure;BME280_temperature;BME280_humidity;BME280_pressure;Samples;Min_cycle;Max_cycle;Signal;HPM_P1;HPM_P2
2022/06/10 00:01:43;;;;;;;4.40;3.53;;;20.30;47.40;;;;;;5051581;28;20185;-39
2022/06/10 00:04:09;;;;;;;4.33;3.00;;;20.40;47.30;;;;;;5051651;28;20400;-38
2022/06/10 00:06:34;;;;;;;3.53;3.00;;;20.40;47.20;;;;;;5051852;28;20184;-39
2022/06/10 00:09:02;;;;;;;4.10;3.30;;;20.50;47.30;;;;;;5051612;28;20541;-39
2022/06/10 00:11:28;;;;;;;7.30;3.90;;;20.50;47.30;;;;;;5051480;28;20201;-39
2022/06/10 00:13:53;;;;;;;4.87;2.83;;;20.50;47.10;;;;;;5051683;28;20404;-39
2022/06/10 00:16:20;;;;;;;4.37;3.30;;;20.50;47.10;;;;;;5051356;28;20447;-39
2022/06/10 00:18:47;;;;;;;4.67;3.13;;;20.50;47.00;;;;;;5051446;28;20664;-39
2022/06/10 00:21:15;;;;;;;5.87;2.90;;;20.50;47.10;;;;;;5051461;28;20776;-39
2022/06/10 00:23:42;;;;;;;5.27;3.87;;;20.50;47.00;;;;;;5051449;28;20991;-38
2022/06/10 00:26:08;;;;;;;4.33;3.27;;;20.50;46.90;;;;;;5051345;28;20416;-39
2022/06/10 00:28:35;;;;;;;6.03;3.77;;;20.60;46.80;;;;;;5054921;28;20403;-38
2022/06/10 00:31:01;;;;;;;4.80;3.80;;;20.60;46.80;;;;;;5055129;28;20958;-37
2022/06/10 00:33:27;;;;;;;4.10;2.80;;;20.60;46.70;;;;;;5055279;28;20408;-37
2022/06/10 00:35:53;;;;;;;3.53;3.00;;;20.60;46.70;;;;;;5055006;28;20411;-37
2022/06/10 00:38:19;;;;;;;4.73;3.83;;;20.60;46.40;;;;;;5055147;28;20165;-36
2022/06/10 00:40:51;;;;;;;3.30;2.70;;;20.60;46.50;;;;;;5055041;28;20449;-37
2022/06/10 00:43:21;;;;;;;4.90;3.40;;;20.60;46.40;;;;;;5054978;28;20431;-37
2022/06/10 00:45:55;;;;;;;4.10;3.27;;;20.60;46.40;;;;;;5054762;28;20416;-37
2022/06/10 00:48:49;;;;;;;7.00;3.10;;;20.60;46.30;;;;;;5055285;28;20402;-37
2022/06/10 00:51:31;;;;;;;7.30;3.40;;;20.60;46.20;;;;;;5036903;28;20414;-37
2022/06/10 00:54:04;;;;;;;4.20;2.83;;;20.60;46.20;;;;;;5054987;28;20718;-38
2022/06/10 00:56:32;;;;;;;4.23;3.37;;;20.60;46.20;;;;;;5055087;28;20983;-37
2022/06/10 00:59:02;;;;;;;5.03;3.73;;;20.60;46.30;;;;;;5054660;28;20454;-37
2022/06/10 01:01:31;;;;;;;5.13;2.77;;;20.60;46.20;;;;;;5054918;28;20454;-37
2022/06/10 01:03:58;;;;;;;4.83;3.80;;;20.60;46.20;;;;;;5054781;28;20408;-37
2022/06/10 01:06:24;;;;;;;3.07;2.13;;;20.60;46.30;;;;;;5054820;28;20404;-37
2022/06/10 01:08:51;;;;;;;4.77;3.40;;;20.60;46.30;;;;;;5054787;28;20415;-37
2022/06/10 01:11:20;;;;;;;3.83;3.10;;;20.60;46.30;;;;;;5054449;28;20407;-37
2022/06/10 01:14:04;;;;;;;3.80;3.20;;;20.60;46.20;;;;;;5054565;28;20495;-37
2022/06/10 01:16:41;;;;;;;6.10;3.20;;;20.60;46.30;;;;;;5054526;28;20529;-37
2022/06/10 01:19:44;;;;;;;4.97;2.47;;;20.60;46.30;;;;;;5054278;28;20904;-37
2022/06/10 01:22:40;;;;;;;3.65;3.20;;;20.60;46.20;;;;;;5054202;28;20995;-37
2022/06/10 01:25:38;;;;;;;4.60;3.53;;;20.60;46.20;;;;;;5054091;28;20173;-37
2022/06/10 01:28:28;;;;;;;4.83;3.37;;;20.60;46.00;;;;;;5054110;28;20411;-37
2022/06/10 01:31:42;;;;;;;6.50;2.77;;;20.60;46.10;;;;;;5054425;28;20752;-37
2022/06/10 01:34:34;;;;;;;3.30;2.80;;;20.70;46.30;;;;;;4972876;28;20497;-37
2022/06/10 01:36:59;;;;;;;5.43;2.83;;;20.60;46.30;;;;;;4968172;28;20549;-37
2022/06/10 01:40:02;;;;;;;5.00;3.10;;;20.60;46.20;;;;;;4972529;28;20913;-37
2022/06/10 01:42:40;;;;;;;5.13;2.83;;;20.60;46.00;;;;;;4972813;28;20572;-37
2022/06/10 01:45:17;;;;;;;2.83;2.13;;;20.50;46.10;;;;;;4972850;28;20917;-37
2022/06/10 01:47:46;;;;;;;3.40;2.80;;;20.50;46.20;;;;;;4972729;28;20308;-37
2022/06/10 01:50:19;;;;;;;3.87;2.40;;;20.50;46.10;;;;;;4972694;28;20466;-37
2022/06/10 01:52:56;;;;;;;3.20;2.90;;;20.40;46.00;;;;;;4972682;28;20514;-37
2022/06/10 01:55:39;;;;;;;4.93;3.03;;;20.40;46.10;;;;;;4972574;28;20884;-37
2022/06/10 01:58:08;;;;;;;3.40;2.40;;;20.40;46.10;;;;;;4972471;28;20474;-37
2022/06/10 02:00:36;;;;;;;5.43;2.93;;;20.30;46.20;;;;;;4972516;28;20412;-37
2022/06/10 02:03:37;;;;;;;4.57;3.70;;;20.30;46.20;;;;;;4972436;28;20439;-37
2022/06/10 02:06:20;;;;;;;5.80;3.55;;;20.20;46.20;;;;;;5051662;28;20415;-37
2022/06/10 02:09:04;;;;;;;8.38;2.95;;;20.20;46.30;;;;;;5053389;28;20183;-37
2022/06/10 02:11:32;;;;;;;3.65;3.00;;;20.10;46.40;;;;;;5053587;28;20224;-37
2022/06/10 02:14:03;;;;;;;3.75;2.22;;;20.10;46.50;;;;;;5053392;28;20178;-38
2022/06/10 02:16:33;;;;;;;5.70;3.73;;;20.10;46.50;;;;;;5053219;28;20296;-37
2022/06/10 02:19:11;;;;;;;4.80;2.57;;;20.00;46.50;;;;;;5053405;28;20407;-37
2022/06/10 02:21:46;;;;;;;3.87;2.40;;;20.00;46.60;;;;;;5053073;28;20412;-37
2022/06/10 02:24:19;;;;;;;5.53;3.08;;;20.00;46.70;;;;;;5053070;28;20495;-37
2022/06/10 02:26:46;;;;;;;3.15;2.25;;;19.90;46.80;;;;;;5053180;28;20196;-37
2022/06/10 02:29:17;;;;;;;3.58;2.20;;;19.90;46.80;;;;;;5053029;28;20174;-37
2022/06/10 02:31:56;;;;;;;3.80;3.07;;;19.90;46.80;;;;;;5052962;28;20189;-37
2022/06/10 02:34:23;;;;;;;4.65;3.08;;;19.80;46.80;;;;;;5052783;28;20412;-37
2022/06/10 02:37:02;;;;;;;5.53;3.10;;;19.80;46.70;;;;;;5052783;28;20204;-37
2022/06/10 02:39:50;;;;;;;3.60;2.53;;;19.80;46.80;;;;;;5052764;28;20169;-37
2022/06/10 02:42:26;;;;;;;3.60;2.85;;;19.70;46.90;;;;;;5052620;28;20247;-37
2022/06/10 02:45:07;;;;;;;4.25;3.13;;;19.70;46.90;;;;;;5052615;28;20260;-37
2022/06/10 02:47:45;;;;;;;5.63;4.10;;;19.70;46.90;;;;;;5052639;28;20165;-37
2022/06/10 02:50:15;;;;;;;5.28;3.13;;;19.60;46.90;;;;;;5051828;28;20254;-37
2022/06/10 02:52:42;;;;;;;3.70;3.00;;;19.60;47.10;;;;;;5052471;28;20189;-37
2022/06/10 02:55:14;;;;;;;5.32;3.42;;;19.60;47.00;;;;;;5052675;28;20193;-37
2022/06/10 03:03:35;;;;;;;4.78;3.53;;;19.50;47.00;;;;;;5052400;28;20196;-37
2022/06/10 03:06:06;;;;;;;6.50;3.53;;;19.50;47.00;;;;;;5052411;28;20181;-37
2022/06/10 03:08:48;;;;;;;5.80;3.47;;;19.50;47.20;;;;;;5052269;28;20177;-37
2022/06/10 03:11:25;;;;;;;5.28;3.28;;;19.40;47.10;;;;;;5052247;28;20174;-37
2022/06/10 03:14:06;;;;;;;7.25;3.22;;;19.40;47.10;;;;;;5052369;28;20161;-37
2022/06/10 03:16:56;;;;;;;7.45;3.28;;;19.40;47.20;;;;;;5052135;28;20220;-37
2022/06/10 03:20:04;;;;;;;5.60;4.10;;;19.40;47.30;;;;;;5052066;28;20169;-37
2022/06/10 03:22:47;;;;;;;4.30;2.90;;;19.40;47.30;;;;;;5051389;28;20263;-37
2022/06/10 03:25:32;;;;;;;4.35;3.45;;;19.30;47.50;;;;;;5052066;28;20407;-37
2022/06/10 03:28:23;;;;;;;4.97;2.95;;;19.30;47.50;;;;;;5051989;28;20188;-37
2022/06/10 03:30:57;;;;;;;5.05;3.75;;;19.30;47.60;;;;;;5052381;28;20287;-37
2022/06/10 03:33:34;;;;;;;5.32;3.80;;;19.20;47.60;;;;;;5051976;28;20657;-37
2022/06/10 03:36:13;;;;;;;4.13;3.17;;;19.20;47.60;;;;;;5051993;28;20165;-37
2022/06/10 03:38:43;;;;;;;3.65;2.90;;;19.30;47.70;;;;;;5051875;28;20149;-37
2022/06/10 03:41:23;;;;;;;4.18;2.75;;;19.30;47.80;;;;;;5052260;28;20208;-37
2022/06/10 03:43:52;;;;;;;3.85;3.22;;;19.30;47.80;;;;;;5052087;28;20188;-37
2022/06/10 03:46:20;;;;;;;4.63;3.08;;;19.30;47.80;;;;;;5051817;28;20181;-37
2022/06/10 03:48:48;;;;;;;5.13;3.17;;;19.30;47.90;;;;;;5051842;28;20258;-37
2022/06/10 03:51:16;;;;;;;3.40;2.97;;;19.40;48.00;;;;;;5051625;28;20189;-37
2022/06/10 03:53:42;;;;;;;4.30;2.65;;;19.40;47.80;;;;;;5051738;28;20185;-37
2022/06/10 03:56:09;;;;;;;5.35;3.45;;;19.40;47.80;;;;;;5051635;28;20201;-37
2022/06/10 03:58:35;;;;;;;4.85;3.53;;;19.40;47.80;;;;;;5051651;28;20165;-37
2022/06/10 04:01:00;;;;;;;3.90;3.33;;;19.40;47.90;;;;;;5052371;28;20199;-37
2022/06/10 04:03:26;;;;;;;4.70;3.60;;;19.50;47.90;;;;;;5055777;28;20223;-37
2022/06/10 04:05:52;;;;;;;3.87;3.40;;;19.40;47.80;;;;;;5055800;28;20731;-37
2022/06/10 04:08:18;;;;;;;5.20;3.43;;;19.50;48.00;;;;;;5055663;28;20803;-37
2022/06/10 04:10:44;;;;;;;4.43;4.03;;;19.50;48.00;;;;;;5055673;28;20176;-37
2022/06/10 04:13:10;;;;;;;3.10;2.53;;;19.60;47.90;;;;;;5055717;28;20431;-37
2022/06/10 04:15:36;;;;;;;4.77;3.27;;;19.60;47.80;;;;;;5055529;28;20418;-38
2022/06/10 04:18:04;;;;;;;3.67;2.90;;;19.70;47.90;;;;;;5055122;28;20554;-37
2022/06/10 04:20:35;;;;;;;4.17;2.87;;;19.70;47.90;;;;;;5055752;28;20416;-37
2022/06/10 04:23:02;;;;;;;4.55;3.40;;;19.80;47.80;;;;;;5055356;28;20836;-37
2022/06/10 04:25:29;;;;;;;4.75;3.30;;;19.80;47.80;;;;;;5055137;28;20185;-37
2022/06/10 04:27:55;;;;;;;4.72;3.10;;;19.90;47.70;;;;;;5055489;28;20251;-37
2022/06/10 04:30:26;;;;;;;3.60;2.80;;;19.90;47.60;;;;;;5055649;28;20262;-37
2022/06/10 04:32:52;;;;;;;3.03;2.42;;;20.00;47.40;;;;;;5055029;28;20225;-37
2022/06/10 04:35:18;;;;;;;7.22;2.88;;;20.00;47.40;;;;;;5055081;28;20263;-37
2022/06/10 04:37:45;;;;;;;4.40;2.72;;;20.00;47.40;;;;;;5055157;28;20201;-37
2022/06/10 04:40:15;;;;;;;7.30;3.87;;;20.10;47.60;;;;;;5055120;28;20185;-37
2022/06/10 04:42:41;;;;;;;5.00;2.77;;;20.10;47.30;;;;;;5054989;28;20446;-37
2022/06/10 04:45:07;;;;;;;7.03;3.00;;;20.20;47.10;;;;;;5054882;28;20802;-37
2022/06/10 04:47:33;;;;;;;6.35;4.43;;;20.10;47.10;;;;;;5055226;28;20637;-37
2022/06/10 04:49:59;;;;;;;3.67;2.70;;;20.20;47.20;;;;;;5054857;28;20183;-37
2022/06/10 04:52:27;;;;;;;3.70;2.70;;;20.20;47.10;;;;;;5054731;28;20669;-37
2022/06/10 04:54:54;;;;;;;6.17;3.30;;;20.30;47.90;;;;;;5054706;28;20842;-37
2022/06/10 04:57:20;;;;;;;3.78;3.13;;;20.40;46.90;;;;;;5054611;28;20895;-37
2022/06/10 04:59:46;;;;;;;3.65;2.75;;;20.40;46.80;;;;;;5054672;28;20649;-37
2022/06/10 05:02:13;;;;;;;6.40;2.90;;;20.50;46.90;;;;;;5054504;28;20193;-37
2022/06/10 05:04:38;;;;;;;3.63;2.60;;;20.60;46.70;;;;;;5054598;28;20404;-37
2022/06/10 05:07:04;;;;;;;4.00;2.67;;;20.60;46.60;;;;;;5054650;28;20495;-37
2022/06/10 05:09:30;;;;;;;5.73;3.43;;;20.70;46.50;;;;;;5054718;28;20184;-37
2022/06/10 05:11:56;;;;;;;6.20;3.30;;;20.80;47.10;;;;;;5054552;28;20419;-37
2022/06/10 05:14:22;;;;;;;8.00;3.20;;;20.80;46.00;;;;;;5053387;28;20202;-39
2022/06/10 05:16:48;;;;;;;4.67;2.60;;;20.80;46.60;;;;;;5054490;28;20263;-38
2022/06/10 05:19:13;;;;;;;9.00;3.20;;;20.90;46.10;;;;;;5054481;28;20530;-39
2022/06/10 05:21:40;;;;;;;4.27;3.60;;;21.00;45.90;;;;;;5054261;28;20420;-39
2022/06/10 05:24:06;;;;;;;3.83;2.67;;;21.10;45.80;;;;;;5054249;28;20482;-39
2022/06/10 05:26:32;;;;;;;5.03;3.00;;;21.10;45.40;;;;;;5054405;28;20416;-39
2022/06/10 05:29:00;;;;;;;4.83;2.63;;;21.20;45.40;;;;;;5054120;28;20411;-39
2022/06/10 05:31:26;;;;;;;3.63;2.70;;;21.30;45.30;;;;;;5054192;28;20427;-37
2022/06/10 05:36:36;;;;;;;3.10;2.20;;;21.40;44.90;;;;;;5054298;28;20513;-37
2022/06/10 05:39:03;;;;;;;3.13;2.40;;;21.40;44.60;;;;;;5054073;28;20407;-37
2022/06/10 05:44:13;;;;;;;9.00;3.10;;;21.50;44.90;;;;;;5053894;28;20875;-37
2022/06/10 05:46:39;;;;;;;3.20;2.47;;;21.60;43.90;;;;;;5054097;28;20416;-37
2022/06/10 05:49:05;;;;;;;3.67;2.73;;;21.60;43.90;;;;;;5054191;28;20182;-37
2022/06/10 05:51:31;;;;;;;3.67;2.07;;;21.70;43.70;;;;;;5053999;28;20686;-38
2022/06/10 05:53:56;;;;;;;3.70;2.03;;;21.80;44.00;;;;;;5053778;28;20188;-38
2022/06/10 05:56:22;;;;;;;3.23;2.27;;;21.80;43.50;;;;;;5053847;28;20969;-39
2022/06/10 05:58:48;;;;;;;4.57;2.83;;;21.90;43.20;;;;;;5053724;28;20733;-39
2022/06/10 06:01:14;;;;;;;2.90;1.97;;;21.90;42.10;;;;;;5053801;28;20438;-39
2022/06/10 06:03:40;;;;;;;3.13;2.40;;;22.00;42.30;;;;;;5053524;28;20177;-39
2022/06/10 06:06:05;;;;;;;2.87;2.17;;;22.00;42.20;;;;;;5053412;28;20226;-39
2022/06/10 06:08:31;;;;;;;10.53;2.37;;;22.00;42.10;;;;;;5035578;28;20680;-39
2022/06/10 06:10:57;;;;;;;2.10;1.67;;;22.10;42.60;;;;;;5053449;28;20486;-39
2022/06/10 06:13:23;;;;;;;2.80;1.60;;;22.20;41.80;;;;;;5053362;28;20279;-39
2022/06/10 06:15:48;;;;;;;3.13;2.13;;;22.30;42.10;;;;;;5053262;28;20170;-39
2022/06/10 06:18:14;;;;;;;2.00;1.50;;;22.30;41.10;;;;;;5053563;28;20283;-39
2022/06/10 06:20:40;;;;;;;1.90;1.40;;;22.40;41.50;;;;;;5053280;28;20173;-39
2022/06/10 06:23:06;;;;;;;1.90;1.20;;;22.50;41.40;;;;;;5053015;28;20197;-39
2022/06/10 06:25:32;;;;;;;1.90;1.57;;;22.60;41.40;;;;;;5053165;28;20181;-38
2022/06/10 06:27:58;;;;;;;2.17;1.53;;;22.70;41.20;;;;;;5053582;28;20419;-39
2022/06/10 06:30:31;;;;;;;5.93;1.97;;;22.70;39.50;;;;;;5052989;28;20400;-39
2022/06/10 06:33:01;;;;;;;2.47;1.50;;;22.80;40.50;;;;;;5052873;28;20435;-38
2022/06/10 06:35:27;;;;;;;2.73;1.80;;;22.90;40.40;;;;;;5052726;28;20911;-39
2022/06/10 06:37:53;;;;;;;2.80;1.50;;;23.00;40.40;;;;;;5052819;28;21136;-38
2022/06/10 06:40:19;;;;;;;4.03;1.80;;;23.00;40.20;;;;;;5052849;28;20407;-39
2022/06/10 06:42:47;;;;;;;4.70;1.33;;;23.10;39.10;;;;;;5053696;28;20970;-39
2022/06/10 06:45:13;;;;;;;2.00;1.43;;;23.10;40.00;;;;;;5052533;28;20424;-39
2022/06/10 06:47:40;;;;;;;2.00;1.60;;;23.20;39.90;;;;;;5052678;28;20407;-39
2022/06/10 06:50:07;;;;;;;3.60;1.57;;;23.30;39.90;;;;;;5052691;28;20912;-39
2022/06/10 06:52:33;;;;;;;2.20;1.30;;;23.30;40.00;;;;;;5052716;28;20488;-39
2022/06/10 06:54:59;;;;;;;4.47;1.77;;;23.40;39.50;;;;;;5052358;28;20411;-39
2022/06/10 06:57:25;;;;;;;4.10;2.00;;;23.50;40.10;;;;;;5052416;28;20197;-39
2022/06/10 06:59:53;;;;;;;4.10;1.40;;;23.50;39.90;;;;;;5052535;28;20816;-39
2022/06/10 07:02:19;;;;;;;2.90;1.93;;;23.60;39.60;;;;;;5052618;28;20942;-39
2022/06/10 07:04:46;;;;;;;4.30;1.40;;;23.60;40.10;;;;;;5052198;28;20409;-39
2022/06/10 07:07:12;;;;;;;2.40;1.60;;;23.60;39.70;;;;;;5052200;28;20516;-39
2022/06/10 07:09:38;;;;;;;2.27;1.53;;;23.60;39.90;;;;;;5052560;28;20435;-39
2022/06/10 07:12:04;;;;;;;2.60;1.63;;;23.60;39.90;;;;;;5052260;28;20886;-39
2022/06/10 07:14:30;;;;;;;2.33;1.20;;;23.60;39.80;;;;;;5052150;28;20916;-40
2022/06/10 07:16:56;;;;;;;2.40;1.40;;;23.60;39.90;;;;;;5052083;28;20451;-39
2022/06/10 07:19:22;;;;;;;3.50;2.10;;;23.60;39.10;;;;;;5052537;28;20183;-39
2022/06/10 07:21:48;;;;;;;3.27;1.73;;;23.60;39.50;;;;;;5052169;28;20243;-39
2022/06/10 07:24:14;;;;;;;2.40;1.60;;;23.60;39.70;;;;;;5052231;28;20818;-39
2022/06/10 07:26:40;;;;;;;3.27;1.60;;;23.60;39.80;;;;;;5052103;28;20904;-39
2022/06/10 07:29:06;;;;;;;3.50;2.00;;;23.70;39.80;;;;;;5052027;28;20582;-39
2022/06/10 07:31:33;;;;;;;4.67;1.90;;;23.70;40.30;;;;;;5051924;28;20284;-38
2022/06/10 07:33:58;;;;;;;3.57;1.73;;;23.70;38.90;;;;;;5051829;28;20742;-39
2022/06/10 07:36:26;;;;;;;7.20;2.37;;;23.70;39.40;;;;;;5051434;28;20454;-39
2022/06/10 07:38:53;;;;;;;2.97;1.50;;;23.70;39.00;;;;;;5051859;28;20216;-39
2022/06/10 07:44:03;;;;;;;3.60;1.93;;;23.80;39.70;;;;;;5052125;28;20764;-39
2022/06/10 07:46:29;;;;;;;1.83;1.17;;;23.80;39.50;;;;;;5052364;28;20768;-39
2022/06/10 07:48:55;;;;;;;4.00;1.80;;;23.90;39.40;;;;;;5051991;28;20404;-39
2022/06/10 07:51:21;;;;;;;3.53;1.80;;;23.90;39.50;;;;;;5051980;28;20427;-39
2022/06/10 07:53:47;;;;;;;2.33;1.40;;;23.90;39.20;;;;;;5051894;28;20588;-39
2022/06/10 07:56:15;;;;;;;2.27;1.80;;;23.90;39.10;;;;;;5051961;28;20660;-39
2022/06/10 07:58:42;;;;;;;5.13;1.83;;;24.00;38.90;;;;;;5051999;28;20408;-39
2022/06/10 08:01:08;;;;;;;2.47;1.83;;;24.00;39.20;;;;;;5051608;28;20434;-39
2022/06/10 08:03:34;;;;;;;3.40;1.90;;;24.00;39.10;;;;;;5051853;28;20400;-39
2022/06/10 08:06:01;;;;;;;5.57;1.83;;;24.10;39.40;;;;;;5051721;28;20219;-39
2022/06/10 08:08:27;;;;;;;2.70;1.90;;;24.10;39.40;;;;;;5051807;28;20427;-39
2022/06/10 08:10:53;;;;;;;3.63;1.70;;;24.30;39.80;;;;;;5051664;28;20402;-39
2022/06/10 08:13:20;;;;;;;2.13;1.60;;;24.40;38.90;;;;;;5051579;28;20427;-39
2022/06/10 08:15:47;;;;;;;2.40;1.63;;;24.50;39.00;;;;;;5051480;28;20396;-39
2022/06/10 08:18:15;;;;;;;3.10;1.70;;;24.60;39.00;;;;;;5051455;28;20443;-39
2022/06/10 08:23:27;;;;;;;3.10;1.90;;;24.80;38.80;;;;;;5051964;28;20442;-39
2022/06/10 08:25:55;;;;;;;3.07;1.70;;;25.00;38.80;;;;;;5051399;28;20411;-39
2022/06/10 08:28:22;;;;;;;3.30;1.70;;;25.10;37.30;;;;;;5051416;28;20415;-39
2022/06/10 08:30:48;;;;;;;1.93;1.53;;;25.10;36.70;;;;;;5051546;28;20453;-39
2022/06/10 08:33:14;;;;;;;3.73;1.87;;;25.20;37.10;;;;;;5051380;28;20424;-39
2022/06/10 08:35:40;;;;;;;2.57;1.60;;;25.20;37.80;;;;;;5051354;28;20407;-39
2022/06/10 08:38:10;;;;;;;2.00;1.40;;;25.20;36.70;;;;;;5051212;28;20534;-39
2022/06/10 08:40:39;;;;;;;5.10;1.70;;;25.20;37.10;;;;;;5051310;28;20402;-39
2022/06/10 08:43:47;;;;;;;3.07;1.70;;;25.40;37.50;;;;;;5051493;28;20432;-39
2022/06/10 08:46:19;;;;;;;2.60;1.40;;;25.60;34.00;;;;;;5051275;28;20380;-39
2022/06/10 08:49:03;;;;;;;3.00;1.90;;;25.50;36.20;;;;;;5052931;28;20413;-39
2022/06/10 08:51:36;;;;;;;2.07;1.17;;;25.60;36.70;;;;;;5055104;28;20503;-39
2022/06/10 08:54:20;;;;;;;2.93;2.20;;;25.60;36.80;;;;;;5055043;28;20412;-39
2022/06/10 08:56:49;;;;;;;8.00;1.83;;;25.50;35.10;;;;;;5054609;28;20457;-39
2022/06/10 08:59:34;;;;;;;5.17;1.60;;;25.40;36.10;;;;;;5054785;28;20411;-39
2022/06/10 09:02:12;;;;;;;2.70;1.53;;;25.50;36.70;;;;;;5054710;28;20423;-39
2022/06/10 09:04:46;;;;;;;2.07;1.30;;;25.50;36.60;;;;;;5054661;28;20404;-39
2022/06/10 09:07:28;;;;;;;2.90;1.80;;;25.60;36.50;;;;;;5054774;28;20402;-39
2022/06/10 09:09:57;;;;;;;5.90;2.43;;;25.80;36.40;;;;;;5054546;28;20398;-39
2022/06/10 09:12:37;;;;;;;3.30;2.77;;;25.90;35.50;;;;;;5054390;28;20425;-39
2022/06/10 09:15:04;;;;;;;5.93;1.90;;;26.10;35.70;;;;;;5054377;28;20404;-39
2022/06/10 09:17:38;;;;;;;2.20;1.80;;;26.10;34.20;;;;;;5054444;28;20592;-39
2022/06/10 09:20:20;;;;;;;2.83;1.70;;;26.00;34.50;;;;;;5054391;28;20396;-39
2022/06/10 09:23:02;;;;;;;4.00;1.50;;;25.80;34.50;;;;;;5054569;28;20514;-39
2022/06/10 09:25:40;;;;;;;2.37;1.60;;;25.80;34.90;;;;;;5054227;28;20453;-39
2022/06/10 09:28:07;;;;;;;2.50;2.03;;;26.00;35.60;;;;;;5054923;28;20490;-39
2022/06/10 09:30:43;;;;;;;2.30;1.80;;;26.10;34.70;;;;;;5054125;28;20462;-39
2022/06/10 09:33:38;;;;;;;5.00;2.30;;;26.30;36.10;;;;;;5054395;28;20489;-38
2022/06/10 09:36:18;;;;;;;4.80;1.83;;;26.60;35.40;;;;;;5036750;28;20994;-38
2022/06/10 09:40:35;;;;;;;5.73;2.10;;;26.70;33.10;;;;;;5053953;28;20400;-38
2022/06/10 09:42:11;;;;;;;3.20;1.77;;;26.80;33.90;;;;;;5053583;28;20534;-37
2022/06/10 09:45:03;;;;;;;3.97;1.77;;;26.90;33.50;;;;;;5053891;28;20403;-38
2022/06/10 09:47:58;;;;;;;3.13;1.70;;;26.80;33.90;;;;;;5053307;28;20422;-37
2022/06/10 09:50:45;;;;;;;4.37;1.90;;;26.60;33.60;;;;;;5053861;28;20433;-38
2022/06/10 09:53:52;;;;;;;3.80;1.83;;;26.60;33.30;;;;;;5053786;28;20855;-38
2022/06/10 09:56:50;;;;;;;2.20;1.70;;;26.50;33.00;;;;;;5053523;28;20426;-38
2022/06/10 09:59:25;;;;;;;6.77;1.73;;;26.50;33.70;;;;;;5053265;28;20396;-38
2022/06/10 10:02:12;;;;;;;2.00;1.27;;;26.40;33.00;;;;;;5053557;28;20415;-38
2022/06/10 10:04:58;;;;;;;2.30;1.40;;;26.30;33.50;;;;;;5053464;28;20392;-37
2022/06/10 10:07:38;;;;;;;4.83;1.63;;;26.50;34.30;;;;;;5053750;28;20414;-38
2022/06/10 10:10:16;;;;;;;2.90;1.30;;;26.80;33.60;;;;;;5053415;28;20427;-38
2022/06/10 10:13:04;;;;;;;2.73;1.53;;;26.90;33.70;;;;;;5053675;28;20424;-39
2022/06/10 10:15:36;;;;;;;4.27;1.80;;;27.00;33.40;;;;;;5053247;28;20400;-39
2022/06/10 10:18:20;;;;;;;4.40;2.07;;;26.90;32.70;;;;;;5053346;28;20803;-39
2022/06/10 10:21:07;;;;;;;6.63;1.60;;;27.10;33.20;;;;;;5053381;28;21030;-39
2022/06/10 10:23:41;;;;;;;4.53;1.70;;;27.20;33.00;;;;;;5053321;28;20400;-39
2022/06/10 10:26:37;;;;;;;3.00;2.10;;;27.30;33.40;;;;;;5053150;28;20385;-39
2022/06/10 10:29:15;;;;;;;2.87;1.80;;;27.30;32.30;;;;;;5052924;28;20431;-40
2022/06/10 10:32:07;;;;;;;2.50;1.90;;;27.30;32.80;;;;;;5052964;28;20420;-39
2022/06/10 10:34:38;;;;;;;2.37;1.60;;;27.50;33.40;;;;;;5052992;28;20422;-39
2022/06/10 10:37:19;;;;;;;3.13;2.20;;;27.60;33.50;;;;;;5053063;28;20451;-39
2022/06/10 10:39:54;;;;;;;2.23;1.43;;;27.80;32.20;;;;;;5053141;28;20399;-39
2022/06/10 10:42:27;;;;;;;3.23;1.83;;;28.00;33.10;;;;;;5052753;28;20435;-39
2022/06/10 10:45:20;;;;;;;2.80;1.70;;;28.20;32.00;;;;;;5053012;28;20444;-39
2022/06/10 10:47:50;;;;;;;5.47;3.40;;;28.30;32.30;;;;;;5052639;28;21083;-40
2022/06/10 10:50:25;;;;;;;26.03;21.53;;;28.40;32.10;;;;;;5052565;28;20916;-39
2022/06/10 10:52:51;;;;;;;3.37;2.57;;;28.40;32.00;;;;;;5052592;28;20427;-39
2022/06/10 10:55:21;;;;;;;1.80;1.47;;;28.40;30.50;;;;;;5052602;28;20399;-39
2022/06/10 10:58:07;;;;;;;3.27;1.73;;;28.30;31.80;;;;;;5052516;28;20485;-40
2022/06/10 11:00:41;;;;;;;2.90;1.80;;;28.20;32.10;;;;;;5052516;28;20392;-39
2022/06/10 11:03:47;;;;;;;2.57;1.23;;;28.10;32.30;;;;;;5052421;28;20542;-39
2022/06/10 11:06:26;;;;;;;8.23;2.00;;;28.20;32.40;;;;;;5048303;28;20823;-40
2022/06/10 11:08:58;;;;;;;2.97;1.70;;;28.30;32.40;;;;;;5052585;28;20439;-40
2022/06/10 11:11:31;;;;;;;2.23;1.50;;;28.30;32.00;;;;;;5051557;28;20516;-40
2022/06/10 11:14:18;;;;;;;2.70;1.50;;;28.30;32.10;;;;;;5052170;28;20438;-40
2022/06/10 11:17:11;;;;;;;2.77;1.50;;;28.40;31.00;;;;;;5052363;28;20480;-39
2022/06/10 11:19:37;;;;;;;3.10;1.30;;;28.60;31.30;;;;;;5052162;28;20491;-40
2022/06/10 11:22:19;;;;;;;2.27;1.23;;;28.70;31.40;;;;;;5052085;28;20574;-40
2022/06/10 11:25:16;;;;;;;2.57;0.90;;;28.90;31.40;;;;;;5051957;28;20177;-40
2022/06/10 11:27:58;;;;;;;2.00;1.30;;;29.00;31.30;;;;;;5052331;28;20424;-40
2022/06/10 11:30:33;;;;;;;1.60;0.90;;;29.20;31.70;;;;;;5052124;28;20412;-40
2022/06/10 11:33:18;;;;;;;2.27;1.53;;;29.40;32.00;;;;;;5053157;28;20497;-40
2022/06/10 11:36:11;;;;;;;2.43;1.60;;;29.60;31.30;;;;;;5052055;28;20475;-40
2022/06/10 11:38:47;;;;;;;3.57;1.40;;;29.70;31.10;;;;;;5051939;28;20469;-40
2022/06/10 11:41:26;;;;;;;5.40;1.43;;;29.80;30.60;;;;;;5051846;28;20427;-39
2022/06/10 11:44:11;;;;;;;3.53;1.70;;;29.80;29.50;;;;;;5051963;28;20406;-39
2022/06/10 11:46:57;;;;;;;3.00;1.10;;;29.80;29.90;;;;;;5052095;28;20457;-39
2022/06/10 11:49:50;;;;;;;1.90;1.20;;;29.80;30.00;;;;;;5052432;28;20466;-40
2022/06/10 11:52:37;;;;;;;3.23;1.53;;;29.90;29.90;;;;;;5051838;28;20454;-39
2022/06/10 11:55:14;;;;;;;3.67;1.30;;;29.80;27.50;;;;;;5051686;28;20918;-40
2022/06/10 12:01:28;;;;;;;2.77;1.63;;;29.50;27.10;;;;;;5051809;28;20907;-39
2022/06/10 12:04:03;;;;;;;2.70;1.27;;;29.50;27.00;;;;;;5008994;28;20508;-40
2022/06/10 12:07:00;;;;;;;3.27;1.60;;;29.70;28.00;;;;;;5051692;28;20414;-40
2022/06/10 12:09:36;;;;;;;4.90;1.40;;;29.80;28.00;;;;;;5051022;28;20417;-40
2022/06/10 12:12:17;;;;;;;3.27;1.50;;;29.90;26.80;;;;;;5051686;28;20434;-40
2022/06/10 12:14:48;;;;;;;2.73;1.50;;;29.90;26.60;;;;;;5051835;28;20411;-40
2022/06/10 12:17:24;;;;;;;1.93;1.20;;;30.00;27.00;;;;;;5051556;28;20448;-40
2022/06/10 12:20:13;;;;;;;3.07;1.10;;;30.10;28.00;;;;;;5051614;28;20398;-40
2022/06/10 12:22:39;;;;;;;3.47;1.30;;;30.30;27.20;;;;;;5042659;28;20439;-39
2022/06/10 12:25:23;;;;;;;2.43;1.03;;;30.40;25.40;;;;;;5055211;28;20419;-40
2022/06/10 12:28:32;;;;;;;2.37;1.57;;;30.60;27.20;;;;;;5055309;28;20410;-39
2022/06/10 12:31:41;;;;;;;3.03;1.80;;;30.70;26.70;;;;;;4974276;28;20859;-39
2022/06/10 12:34:37;;;;;;;2.97;1.40;;;30.80;26.40;;;;;;4973254;28;20903;-39
2022/06/10 12:37:07;;;;;;;1.70;1.00;;;30.80;26.30;;;;;;4973978;28;20478;-40
2022/06/10 12:39:56;;;;;;;2.20;1.33;;;30.90;24.40;;;;;;4974522;28;20407;-40
2022/06/10 12:42:33;;;;;;;2.77;1.50;;;31.00;24.90;;;;;;4973785;28;20550;-39
2022/06/10 12:45:01;;;;;;;2.40;1.40;;;30.90;23.40;;;;;;4974010;28;20403;-40
2022/06/10 12:47:35;;;;;;;1.83;1.20;;;30.80;25.00;;;;;;4973919;28;20869;-39
2022/06/10 12:50:16;;;;;;;2.60;1.20;;;31.10;26.80;;;;;;4973921;28;20448;-40
2022/06/10 12:53:06;;;;;;;1.87;1.30;;;31.30;27.10;;;;;;4973802;28;20910;-40
2022/06/10 12:55:42;;;;;;;2.87;1.30;;;31.30;25.20;;;;;;4973720;28;20415;-40
2022/06/10 12:58:37;;;;;;;2.07;1.40;;;31.20;25.60;;;;;;4973660;28;20455;-39
2022/06/10 13:01:22;;;;;;;2.10;1.17;;;31.10;26.00;;;;;;4991414;28;20415;-40
2022/06/10 13:03:57;;;;;;;3.30;1.30;;;31.00;26.60;;;;;;5054707;28;20764;-40
2022/06/10 13:06:25;;;;;;;1.60;1.00;;;31.00;25.70;;;;;;5055089;28;20548;-39
2022/06/10 13:09:15;;;;;;;2.83;1.40;;;31.10;25.70;;;;;;5054596;28;20771;-40
2022/06/10 13:11:49;;;;;;;1.90;1.00;;;31.20;26.10;;;;;;5044658;28;20589;-40
2022/06/10 13:14:30;;;;;;;2.43;1.30;;;31.30;25.70;;;;;;5054423;28;20453;-40
2022/06/10 13:16:58;;;;;;;1.90;1.00;;;31.40;24.30;;;;;;5054443;28;20442;-39
2022/06/10 13:19:30;;;;;;;2.23;1.57;;;31.50;25.50;;;;;;5054332;28;20411;-40
2022/06/10 13:21:57;;;;;;;2.77;1.37;;;31.70;25.80;;;;;;5054335;28;20473;-40
2022/06/10 13:24:23;;;;;;;2.13;1.10;;;31.80;25.80;;;;;;5054407;28;20449;-40
2022/06/10 13:26:50;;;;;;;1.90;1.30;;;32.00;25.10;;;;;;5054394;28;20436;-39
2022/06/10 13:29:19;;;;;;;2.90;1.40;;;31.90;24.70;;;;;;5054548;28;20231;-39
2022/06/10 13:32:09;;;;;;;1.80;1.20;;;31.70;25.20;;;;;;5054430;28;20431;-40
2022/06/10 13:34:38;;;;;;;2.20;1.30;;;31.60;25.10;;;;;;5053234;28;20403;-40
2022/06/10 13:37:18;;;;;;;2.57;1.40;;;31.40;25.60;;;;;;5054303;28;20444;-39
2022/06/10 13:39:47;;;;;;;1.60;0.93;;;31.40;23.60;;;;;;5054389;28;20392;-40
2022/06/10 13:42:31;;;;;;;2.77;1.00;;;31.30;24.90;;;;;;5035937;28;20506;-39